მოწმენდილი ცა დაბალი და ალაგ-ალაგ მიმოფანტული ღრუბლებით
მოწმენდილი ცა დაბალი და ალაგ-ალაგ მიმოფანტული ღრუბლებით
მოწმენდილი ცა დაბალი და ალაგ-ალაგ მიმოფანტული ღრუბლებით
მოღრუბლული
მოწმენდილი ცა დაბალი და ალაგ-ალაგ მიმოფანტული ღრუბლებით
მოწმენდილი ცა დაბალი და ალაგ-ალაგ მიმოფანტული ღრუბლებით
მოწმენდილი, მაგრამ ნისლიანი ღრუბლებით
ნაწილობრივ მოღრუბლული ალაგ-ალაგ მიმოფანტული ღრუბლებით
მოწმენდილი, მაგრამ ნისლიანი ღრუბლებით
(°C)
21°
21°
20°
20°
18°
18°
18°
18°
17°
17°
17°
17°
16°
16°
16°
16°
16°
16°
(°C)
22°
21°
19°
19°
18°
17°
17°
16°
16°
აჩა
სა
სა
სამხრ.
სსა
სამხრ.
სამხრ.
სსდ
სამხრ.
(km/h)
6-13
5-10
5-7
5-7
5-7
6-9
7-11
7-11
7-12
(მმ)
0
0
0
0
0
0
0
0
0
(%)
0
0
0
0
0
0
0
0
0

მზის სიმაღლე

/ -6°
sun-icon
UV 8
05:43
20:58
კლებადი მთვარე (235°)
23:08
10:36

METAR ინსბრუკი (LOWI)-თვის

დრო პირობები ტემპერატურა/
ნამი
ქარი ხილვადობა ამინდი ღრუბლები წნევა ცვლილება დაუმუშავებელი
VFR 22°C / 16°C 40º variable 010º to 070º 3kt 9700m - Clear 1013 No Significant change LOWI 251820Z AUTO 04003KT 010V070 9999 NCD 22/16 Q1013 NOSIG
VFR 23°C / 15°C 70º 6kt 9700m - Clear 1013 No Significant change LOWI 251750Z AUTO 07006KT 9999 NCD 23/15 Q1013 NOSIG
VFR 24°C / 15°C 70º variable 040º to 100º 7kt 9700m - Clear 1013 No Significant change LOWI 251720Z AUTO 07007KT 040V100 9999 NCD 24/15 Q1013 NOSIG
VFR 25°C / 14°C 90º variable 050º to 120º 8kt 9700m - Clear 1013 No Significant change LOWI 251650Z AUTO 09008KT 050V120 9999 NCD 25/14 Q1013 NOSIG
VFR 25°C / 14°C 80º 8kt 9700m - Clear 1013 No Significant change LOWI 251620Z AUTO 08008KT 9999 NCD 25/14 Q1013 NOSIG
VFR 25°C / 13°C 80º variable 050º to 120º 8kt 9700m - Clear 1013 No Significant change LOWI 251550Z AUTO 08008KT 050V120 9999 NCD 25/13 Q1013 NOSIG
VFR 25°C / 13°C 90º variable 050º to 120º 8kt 9700m - Clear 1013 No Significant change LOWI 251520Z AUTO 09008KT 050V120 9999 NCD 25/13 Q1013 NOSIG
VFR 26°C / 12°C 70º variable 040º to 120º 8kt 9700m - Clear 1013 No Significant change LOWI 251450Z AUTO 07008KT 040V120 9999 NCD 26/12 Q1013 NOSIG
VFR 27°C / 13°C 80º variable 040º to 120º 7kt 9700m - Clear 1013 No Significant change LOWI 251420Z AUTO 08007KT 040V120 9999 NCD 27/13 Q1013 NOSIG
VFR 26°C / 12°C 110º variable 040º to 180º 6kt 9700m - Clear 1013 Becoming: Wind 80º 10kt. LOWI 251350Z AUTO 11006KT 040V180 9999 NCD 26/12 Q1013 BECMG 08010KT
VFR 26°C / 12°C 100º variable 040º to 180º 6kt 9700m - Few Clouds 6000ft 1013 Becoming: Wind 80º 10kt. LOWI 251320Z 10006KT 040V180 9999 FEW060 26/12 Q1013 BECMG 08010KT
VFR 26°C / 13°C 70º variable 020º to 140º 6kt 9700m - Clear 1014 Becoming: Wind 80º 10kt. LOWI 251250Z AUTO 07006KT 020V140 9999 NCD 26/13 Q1014 BECMG 08010KT
VFR 26°C / 14°C 110º variable 050º to 150º 5kt 9700m - Clear 1014 Becoming: Wind 80º 10kt. LOWI 251220Z AUTO 11005KT 050V150 9999 NCD 26/14 Q1014 BECMG 08010KT
VFR 25°C / 13°C 80º variable 010º to 150º 5kt 9700m - Clear 1014 Temporary: Wind 80º 10kt. LOWI 251150Z 08005KT 010V150 9999 NSC 25/13 Q1014 TEMPO 08010KT
VFR 25°C / 14°C 110º variable 040º to 180º 5kt 9700m - Clear 1015 No Significant change LOWI 251120Z AUTO 11005KT 040V180 9999 NCD 25/14 Q1015 NOSIG
VFR 24°C / 13°C 80º variable 020º to 150º 5kt 9700m - Clear 1015 No Significant change LOWI 251050Z AUTO 08005KT 020V150 9999 NCD 24/13 Q1015 NOSIG
VFR 23°C / 14°C 60º variable 010º to 120º 5kt 9700m - Clear 1016 No Significant change LOWI 251020Z AUTO 06005KT 010V120 9999 NCD 23/14 Q1016 NOSIG
VFR 23°C / 14°C 3kt 9700m - Clear 1016 No Significant change LOWI 250950Z AUTO VRB03KT 9999 NCD 23/14 Q1016 NOSIG
VFR 22°C / 14°C 2kt 9700m - Few Clouds 4000ft 1017 No Significant change LOWI 250920Z VRB02KT 9999 FEW040 22/14 Q1017 NOSIG
VFR 21°C / 13°C 2kt 9700m - Clear 1017 No Significant change LOWI 250850Z AUTO VRB02KT 9999 NCD 21/13 Q1017 NOSIG
VFR 20°C / 14°C 2kt 9700m - Clear 1017 No Significant change LOWI 250820Z AUTO VRB02KT 9999 NCD 20/14 Q1017 NOSIG
VFR 20°C / 14°C 1kt 9700m - Clear 1018 No Significant change LOWI 250750Z AUTO VRB01KT 9999 NCD 20/14 Q1018 NOSIG
VFR 19°C / 14°C 60º variable 020º to 120º 3kt 9700m - Clear 1018 No Significant change LOWI 250720Z AUTO 06003KT 020V120 9999 NCD 19/14 Q1018 NOSIG
VFR 18°C / 14°C 2kt 9700m - Clear 1018 No Significant change LOWI 250650Z AUTO VRB02KT 9999 NCD 18/14 Q1018 NOSIG

VFR

22°C / 16°C

[მეტი]
ქარი 40º variable 010º to 070º 3kt
ხილვადობა 9700m
ამინდი -
ღრუბლები Clear
წნევა 1013
ცვლილება No Significant change
დაუმუშავებელი LOWI 251820Z AUTO 04003KT 010V070 9999 NCD 22/16 Q1013 NOSIG

VFR

23°C / 15°C

[მეტი]
ქარი 70º 6kt
ხილვადობა 9700m
ამინდი -
ღრუბლები Clear
წნევა 1013
ცვლილება No Significant change
დაუმუშავებელი LOWI 251750Z AUTO 07006KT 9999 NCD 23/15 Q1013 NOSIG

VFR

24°C / 15°C

[მეტი]
ქარი 70º variable 040º to 100º 7kt
ხილვადობა 9700m
ამინდი -
ღრუბლები Clear
წნევა 1013
ცვლილება No Significant change
დაუმუშავებელი LOWI 251720Z AUTO 07007KT 040V100 9999 NCD 24/15 Q1013 NOSIG

VFR

25°C / 14°C

[მეტი]
ქარი 90º variable 050º to 120º 8kt
ხილვადობა 9700m
ამინდი -
ღრუბლები Clear
წნევა 1013
ცვლილება No Significant change
დაუმუშავებელი LOWI 251650Z AUTO 09008KT 050V120 9999 NCD 25/14 Q1013 NOSIG

VFR

25°C / 14°C

[მეტი]
ქარი 80º 8kt
ხილვადობა 9700m
ამინდი -
ღრუბლები Clear
წნევა 1013
ცვლილება No Significant change
დაუმუშავებელი LOWI 251620Z AUTO 08008KT 9999 NCD 25/14 Q1013 NOSIG

VFR

25°C / 13°C

[მეტი]
ქარი 80º variable 050º to 120º 8kt
ხილვადობა 9700m
ამინდი -
ღრუბლები Clear
წნევა 1013
ცვლილება No Significant change
დაუმუშავებელი LOWI 251550Z AUTO 08008KT 050V120 9999 NCD 25/13 Q1013 NOSIG

VFR

25°C / 13°C

[მეტი]
ქარი 90º variable 050º to 120º 8kt
ხილვადობა 9700m
ამინდი -
ღრუბლები Clear
წნევა 1013
ცვლილება No Significant change
დაუმუშავებელი LOWI 251520Z AUTO 09008KT 050V120 9999 NCD 25/13 Q1013 NOSIG

VFR

26°C / 12°C

[მეტი]
ქარი 70º variable 040º to 120º 8kt
ხილვადობა 9700m
ამინდი -
ღრუბლები Clear
წნევა 1013
ცვლილება No Significant change
დაუმუშავებელი LOWI 251450Z AUTO 07008KT 040V120 9999 NCD 26/12 Q1013 NOSIG

VFR

27°C / 13°C

[მეტი]
ქარი 80º variable 040º to 120º 7kt
ხილვადობა 9700m
ამინდი -
ღრუბლები Clear
წნევა 1013
ცვლილება No Significant change
დაუმუშავებელი LOWI 251420Z AUTO 08007KT 040V120 9999 NCD 27/13 Q1013 NOSIG

VFR

26°C / 12°C

[მეტი]
ქარი 110º variable 040º to 180º 6kt
ხილვადობა 9700m
ამინდი -
ღრუბლები Clear
წნევა 1013
ცვლილება Becoming: Wind 80º 10kt.
დაუმუშავებელი LOWI 251350Z AUTO 11006KT 040V180 9999 NCD 26/12 Q1013 BECMG 08010KT

VFR

26°C / 12°C

[მეტი]
ქარი 100º variable 040º to 180º 6kt
ხილვადობა 9700m
ამინდი -
ღრუბლები Few Clouds 6000ft
წნევა 1013
ცვლილება Becoming: Wind 80º 10kt.
დაუმუშავებელი LOWI 251320Z 10006KT 040V180 9999 FEW060 26/12 Q1013 BECMG 08010KT

VFR

26°C / 13°C

[მეტი]
ქარი 70º variable 020º to 140º 6kt
ხილვადობა 9700m
ამინდი -
ღრუბლები Clear
წნევა 1014
ცვლილება Becoming: Wind 80º 10kt.
დაუმუშავებელი LOWI 251250Z AUTO 07006KT 020V140 9999 NCD 26/13 Q1014 BECMG 08010KT

VFR

26°C / 14°C

[მეტი]
ქარი 110º variable 050º to 150º 5kt
ხილვადობა 9700m
ამინდი -
ღრუბლები Clear
წნევა 1014
ცვლილება Becoming: Wind 80º 10kt.
დაუმუშავებელი LOWI 251220Z AUTO 11005KT 050V150 9999 NCD 26/14 Q1014 BECMG 08010KT

VFR

25°C / 13°C

[მეტი]
ქარი 80º variable 010º to 150º 5kt
ხილვადობა 9700m
ამინდი -
ღრუბლები Clear
წნევა 1014
ცვლილება Temporary: Wind 80º 10kt.
დაუმუშავებელი LOWI 251150Z 08005KT 010V150 9999 NSC 25/13 Q1014 TEMPO 08010KT

VFR

25°C / 14°C

[მეტი]
ქარი 110º variable 040º to 180º 5kt
ხილვადობა 9700m
ამინდი -
ღრუბლები Clear
წნევა 1015
ცვლილება No Significant change
დაუმუშავებელი LOWI 251120Z AUTO 11005KT 040V180 9999 NCD 25/14 Q1015 NOSIG

VFR

24°C / 13°C

[მეტი]
ქარი 80º variable 020º to 150º 5kt
ხილვადობა 9700m
ამინდი -
ღრუბლები Clear
წნევა 1015
ცვლილება No Significant change
დაუმუშავებელი LOWI 251050Z AUTO 08005KT 020V150 9999 NCD 24/13 Q1015 NOSIG

VFR

23°C / 14°C

[მეტი]
ქარი 60º variable 010º to 120º 5kt
ხილვადობა 9700m
ამინდი -
ღრუბლები Clear
წნევა 1016
ცვლილება No Significant change
დაუმუშავებელი LOWI 251020Z AUTO 06005KT 010V120 9999 NCD 23/14 Q1016 NOSIG

VFR

23°C / 14°C

[მეტი]
ქარი 3kt
ხილვადობა 9700m
ამინდი -
ღრუბლები Clear
წნევა 1016
ცვლილება No Significant change
დაუმუშავებელი LOWI 250950Z AUTO VRB03KT 9999 NCD 23/14 Q1016 NOSIG

VFR

22°C / 14°C

[მეტი]
ქარი 2kt
ხილვადობა 9700m
ამინდი -
ღრუბლები Few Clouds 4000ft
წნევა 1017
ცვლილება No Significant change
დაუმუშავებელი LOWI 250920Z VRB02KT 9999 FEW040 22/14 Q1017 NOSIG

VFR

21°C / 13°C

[მეტი]
ქარი 2kt
ხილვადობა 9700m
ამინდი -
ღრუბლები Clear
წნევა 1017
ცვლილება No Significant change
დაუმუშავებელი LOWI 250850Z AUTO VRB02KT 9999 NCD 21/13 Q1017 NOSIG

VFR

20°C / 14°C

[მეტი]
ქარი 2kt
ხილვადობა 9700m
ამინდი -
ღრუბლები Clear
წნევა 1017
ცვლილება No Significant change
დაუმუშავებელი LOWI 250820Z AUTO VRB02KT 9999 NCD 20/14 Q1017 NOSIG

VFR

20°C / 14°C

[მეტი]
ქარი 1kt
ხილვადობა 9700m
ამინდი -
ღრუბლები Clear
წნევა 1018
ცვლილება No Significant change
დაუმუშავებელი LOWI 250750Z AUTO VRB01KT 9999 NCD 20/14 Q1018 NOSIG

VFR

19°C / 14°C

[მეტი]
ქარი 60º variable 020º to 120º 3kt
ხილვადობა 9700m
ამინდი -
ღრუბლები Clear
წნევა 1018
ცვლილება No Significant change
დაუმუშავებელი LOWI 250720Z AUTO 06003KT 020V120 9999 NCD 19/14 Q1018 NOSIG

VFR

18°C / 14°C

[მეტი]
ქარი 2kt
ხილვადობა 9700m
ამინდი -
ღრუბლები Clear
წნევა 1018
ცვლილება No Significant change
დაუმუშავებელი LOWI 250650Z AUTO VRB02KT 9999 NCD 18/14 Q1018 NOSIG

TAF ინსბრუკი (LOWI)-თვის

From till


Maximum Temperature 29ºC on . Minimum Temperature 14ºC on .
From till Wind 80º 7kt. Visibility 9700m. Few Clouds 6000ft.
Becoming from till
Becoming from till
With 30% probability, Temporarly from till Few Clouds 6000ft.

დაუმუშავებელი: TAF LOWI 251715Z 2518/2618 08007KT 9999 FEW060 TX29/2614Z TN14/2604Z BECMG 2518/2520 27005KT BECMG 2612/2614 08009KT PROB30 TEMPO 2615/2618 FEW060CB

რადარის და ნალექების მაჩვენებელი ინსბრუკი -თვის

გაწურეთ
Მსუბუქი
ზომიერი
Მძიმე
Ძალიან მძიმე
სეტყვა

მდებარეობის მარკერი მოთავსებულია ინსბრუკი -ზე. ეს ანიმაცია აჩვენებს ნალექის რადარს არჩეული დროის დიაპაზონისთვის, ასევე 2h პროგნოზს. ნარინჯისფერი ჯვრები მიუთითებს ელვაზე. nowcast.de-ის მიერ მოწოდებული მონაცემები (ხელმისაწვდომია აშშ-ში, ევროპაში, ავსტრალიაში). წვიმა ან მსუბუქი თოვლი შეიძლება იყოს უხილავი რადარისთვის. ნალექის ინტენსივობა არის ფერადი კოდირებული, დაწყებული ფირუზისფერიდან წითამდე.

მიმდინარე სატელიტისა და წვიმის სურათები ინსბრუკი-თვის, ავსტრია

ლოკაციის მარკერი დაყენებყლია ინსბრუკიზე. [მეტი]

რეალურ დროში სატელიტური სურათი აერთიანებს ხილულ სინათლეს დღისით ღამის განმავლობაში ინფრაწითელ გამოსხივებასთან ერთად. ღამით, სურათი არ არის მუქი, რადგან ინფრაწითელ გამოსხივებას შეუძლია ტემპერატურის განსხვავებების დადგენა. სამწუხაროდ, დაბალი ღრუბლები და ნისლი ძნელია განასხვავონ მიწის ტემპერატურისგან და, შესაბამისად, ისინი შეიძლება თითქმის არ ჩანდეს ღამით. Meteosat სატელიტური გამოსახულება ევროპისთვის ახლდება რეალურ დროში ყოველ 5 წუთში. GOES-16/GOES-17 (ჩრდილოეთი და სამხრეთ ამერიკა) და ჰიმავარი (აზია) გამოსახულებები ახლდება ყოველ 10 წუთში.

ნალექი შეფასებულია რადარებიდან და თანამგზავრებიდან. სატელიტების ნალექის შეფასებები ღამით ნაკლებად ზუსტია, ვიდრე დღისით.

© 2024 meteoblue, NOAA Satellites GOES-16 and EUMETSAT. ელვის შესახებ მონაცემები მოწოდებული nowcast მიერ.

თავში დაბრუნება
×
გამარჯობა,
როგორც ჩანს, რეკლამის ბლოკერს იყენებთ.

რეკლამა აუცილებელია ჩვენი უფასო ვებსაიტის უნიკალური დეტალებითა და სიზუსტით შესანარჩუნებლად.

გთხოვთ თეთრი სია www.meteoblue.com თქვენს რეკლამის ბლოკერზე ან განიხილოთ ჩვენი ერთ-ერთი პროდუქტის შეძენა:

უკვე გაქვთ გამოწერა?
შემდეგ გთხოვთ შედით სისტემაში.